sensor_id;sensor_type;location;lat;lon;timestamp;P1;durP1;ratioP1;P2;durP2;ratioP2
82513;SDS011;72858;52.130;5.584;2024-01-15T00:01:35;9.43;;;1.80;;
82513;SDS011;72858;52.130;5.584;2024-01-15T00:04:00;10.43;;;2.33;;
82513;SDS011;72858;52.130;5.584;2024-01-15T00:06:25;10.85;;;1.73;;
82513;SDS011;72858;52.130;5.584;2024-01-15T00:08:52;14.38;;;2.20;;
82513;SDS011;72858;52.130;5.584;2024-01-15T00:11:17;13.82;;;1.70;;
82513;SDS011;72858;52.130;5.584;2024-01-15T00:13:42;13.68;;;1.55;;
82513;SDS011;72858;52.130;5.584;2024-01-15T00:16:07;8.95;;;2.05;;
82513;SDS011;72858;52.130;5.584;2024-01-15T00:18:33;10.63;;;1.60;;
82513;SDS011;72858;52.130;5.584;2024-01-15T00:20:58;13.27;;;1.77;;
82513;SDS011;72858;52.130;5.584;2024-01-15T00:23:23;10.43;;;2.20;;
82513;SDS011;72858;52.130;5.584;2024-01-15T00:25:50;14.87;;;2.17;;
82513;SDS011;72858;52.130;5.584;2024-01-15T00:28:15;11.02;;;1.67;;
82513;SDS011;72858;52.130;5.584;2024-01-15T00:30:41;10.93;;;2.10;;
82513;SDS011;72858;52.130;5.584;2024-01-15T00:33:06;10.03;;;2.10;;
82513;SDS011;72858;52.130;5.584;2024-01-15T00:35:32;17.80;;;2.20;;
82513;SDS011;72858;52.130;5.584;2024-01-15T00:37:57;14.77;;;2.23;;
82513;SDS011;72858;52.130;5.584;2024-01-15T00:40:22;17.83;;;1.92;;
82513;SDS011;72858;52.130;5.584;2024-01-15T00:42:47;9.43;;;1.97;;
82513;SDS011;72858;52.130;5.584;2024-01-15T00:45:13;16.75;;;2.15;;
82513;SDS011;72858;52.130;5.584;2024-01-15T00:47:38;14.13;;;2.20;;
82513;SDS011;72858;52.130;5.584;2024-01-15T00:50:03;15.65;;;2.58;;
82513;SDS011;72858;52.130;5.584;2024-01-15T00:52:29;20.25;;;2.33;;
82513;SDS011;72858;52.130;5.584;2024-01-15T00:54:54;12.87;;;2.37;;
82513;SDS011;72858;52.130;5.584;2024-01-15T00:57:19;11.75;;;2.00;;
82513;SDS011;72858;52.130;5.584;2024-01-15T00:59:44;13.60;;;2.00;;
82513;SDS011;72858;52.130;5.584;2024-01-15T01:02:10;11.65;;;1.65;;
82513;SDS011;72858;52.130;5.584;2024-01-15T01:04:35;12.45;;;2.20;;
82513;SDS011;72858;52.130;5.584;2024-01-15T01:07:00;14.23;;;2.22;;
82513;SDS011;72858;52.130;5.584;2024-01-15T01:09:25;21.43;;;3.27;;
82513;SDS011;72858;52.130;5.584;2024-01-15T01:11:54;5.63;;;1.38;;
82513;SDS011;72858;52.130;5.584;2024-01-15T01:14:19;9.47;;;2.30;;
82513;SDS011;72858;52.130;5.584;2024-01-15T01:16:44;7.53;;;1.73;;
82513;SDS011;72858;52.130;5.584;2024-01-15T01:19:09;12.87;;;2.17;;
82513;SDS011;72858;52.130;5.584;2024-01-15T01:21:34;11.43;;;2.33;;
82513;SDS011;72858;52.130;5.584;2024-01-15T01:24:00;8.15;;;1.67;;
82513;SDS011;72858;52.130;5.584;2024-01-15T01:26:25;9.80;;;1.70;;
82513;SDS011;72858;52.130;5.584;2024-01-15T01:28:50;8.83;;;1.93;;
82513;SDS011;72858;52.130;5.584;2024-01-15T01:31:15;10.77;;;1.80;;
82513;SDS011;72858;52.130;5.584;2024-01-15T01:33:41;12.65;;;1.95;;
82513;SDS011;72858;52.130;5.584;2024-01-15T01:36:07;10.02;;;1.98;;
82513;SDS011;72858;52.130;5.584;2024-01-15T01:38:32;17.67;;;2.17;;
82513;SDS011;72858;52.130;5.584;2024-01-15T01:40:57;9.50;;;1.50;;
82513;SDS011;72858;52.130;5.584;2024-01-15T01:43:23;12.50;;;1.90;;
82513;SDS011;72858;52.130;5.584;2024-01-15T01:45:48;11.60;;;2.20;;
82513;SDS011;72858;52.130;5.584;2024-01-15T01:48:13;9.80;;;2.40;;
82513;SDS011;72858;52.130;5.584;2024-01-15T01:50:38;10.52;;;2.25;;
82513;SDS011;72858;52.130;5.584;2024-01-15T01:53:03;9.35;;;1.98;;
82513;SDS011;72858;52.130;5.584;2024-01-15T01:55:29;15.05;;;1.83;;
82513;SDS011;72858;52.130;5.584;2024-01-15T01:57:54;9.80;;;1.83;;
82513;SDS011;72858;52.130;5.584;2024-01-15T02:00:20;12.93;;;1.90;;
82513;SDS011;72858;52.130;5.584;2024-01-15T02:02:45;10.27;;;1.83;;
82513;SDS011;72858;52.130;5.584;2024-01-15T02:05:10;16.27;;;2.63;;
82513;SDS011;72858;52.130;5.584;2024-01-15T02:07:37;21.13;;;2.80;;
82513;SDS011;72858;52.130;5.584;2024-01-15T02:10:02;8.77;;;1.75;;
82513;SDS011;72858;52.130;5.584;2024-01-15T02:12:27;13.93;;;2.13;;
82513;SDS011;72858;52.130;5.584;2024-01-15T02:14:53;13.43;;;2.05;;
82513;SDS011;72858;52.130;5.584;2024-01-15T02:17:18;10.40;;;1.67;;
82513;SDS011;72858;52.130;5.584;2024-01-15T02:19:43;18.83;;;2.53;;
82513;SDS011;72858;52.130;5.584;2024-01-15T02:22:09;14.77;;;2.10;;
82513;SDS011;72858;52.130;5.584;2024-01-15T02:24:34;17.57;;;2.23;;
82513;SDS011;72858;52.130;5.584;2024-01-15T02:26:59;15.67;;;2.13;;
82513;SDS011;72858;52.130;5.584;2024-01-15T02:29:24;18.67;;;2.33;;
82513;SDS011;72858;52.130;5.584;2024-01-15T02:31:49;12.15;;;1.45;;
82513;SDS011;72858;52.130;5.584;2024-01-15T02:34:15;18.88;;;2.13;;
82513;SDS011;72858;52.130;5.584;2024-01-15T02:36:40;7.10;;;1.40;;
82513;SDS011;72858;52.130;5.584;2024-01-15T02:39:05;14.30;;;2.30;;
82513;SDS011;72858;52.130;5.584;2024-01-15T02:41:30;10.20;;;1.70;;
82513;SDS011;72858;52.130;5.584;2024-01-15T02:43:55;10.37;;;1.43;;
82513;SDS011;72858;52.130;5.584;2024-01-15T02:46:21;11.57;;;1.33;;
82513;SDS011;72858;52.130;5.584;2024-01-15T02:48:46;4.67;;;1.00;;
82513;SDS011;72858;52.130;5.584;2024-01-15T02:51:11;7.28;;;1.58;;
82513;SDS011;72858;52.130;5.584;2024-01-15T02:53:36;9.55;;;2.22;;
82513;SDS011;72858;52.130;5.584;2024-01-15T02:56:02;12.25;;;1.67;;
82513;SDS011;72858;52.130;5.584;2024-01-15T02:58:27;6.50;;;1.30;;
82513;SDS011;72858;52.130;5.584;2024-01-15T03:00:52;6.87;;;1.20;;
82513;SDS011;72858;52.130;5.584;2024-01-15T03:03:18;9.93;;;1.40;;
82513;SDS011;72858;52.130;5.584;2024-01-15T03:05:43;4.03;;;0.90;;
82513;SDS011;72858;52.130;5.584;2024-01-15T03:08:08;5.40;;;1.42;;
82513;SDS011;72858;52.130;5.584;2024-01-15T03:10:33;3.70;;;1.23;;
82513;SDS011;72858;52.130;5.584;2024-01-15T03:12:58;8.93;;;1.20;;
82513;SDS011;72858;52.130;5.584;2024-01-15T03:15:23;3.83;;;1.00;;
82513;SDS011;72858;52.130;5.584;2024-01-15T03:17:49;5.53;;;1.13;;
82513;SDS011;72858;52.130;5.584;2024-01-15T03:20:14;4.35;;;0.88;;
82513;SDS011;72858;52.130;5.584;2024-01-15T03:22:39;7.70;;;1.00;;
82513;SDS011;72858;52.130;5.584;2024-01-15T03:25:05;4.00;;;0.70;;
82513;SDS011;72858;52.130;5.584;2024-01-15T03:27:31;6.38;;;0.93;;
82513;SDS011;72858;52.130;5.584;2024-01-15T03:29:56;5.97;;;1.00;;
82513;SDS011;72858;52.130;5.584;2024-01-15T03:32:21;8.30;;;1.20;;
82513;SDS011;72858;52.130;5.584;2024-01-15T03:34:46;4.00;;;1.20;;
82513;SDS011;72858;52.130;5.584;2024-01-15T03:37:12;7.20;;;1.10;;
82513;SDS011;72858;52.130;5.584;2024-01-15T03:39:37;3.15;;;0.80;;
82513;SDS011;72858;52.130;5.584;2024-01-15T03:42:03;13.00;;;1.83;;
82513;SDS011;72858;52.130;5.584;2024-01-15T03:44:28;11.60;;;1.55;;
82513;SDS011;72858;52.130;5.584;2024-01-15T03:46:53;7.57;;;1.30;;
82513;SDS011;72858;52.130;5.584;2024-01-15T03:49:18;8.98;;;1.30;;
82513;SDS011;72858;52.130;5.584;2024-01-15T03:51:44;8.60;;;4.38;;
82513;SDS011;72858;52.130;5.584;2024-01-15T03:54:09;25.42;;;9.55;;
82513;SDS011;72858;52.130;5.584;2024-01-15T03:56:34;13.55;;;7.22;;
82513;SDS011;72858;52.130;5.584;2024-01-15T03:59:00;9.55;;;3.38;;
82513;SDS011;72858;52.130;5.584;2024-01-15T04:01:25;10.30;;;2.67;;
82513;SDS011;72858;52.130;5.584;2024-01-15T04:03:50;11.20;;;1.77;;
82513;SDS011;72858;52.130;5.584;2024-01-15T04:06:16;8.93;;;1.35;;
82513;SDS011;72858;52.130;5.584;2024-01-15T04:08:41;5.97;;;1.90;;
82513;SDS011;72858;52.130;5.584;2024-01-15T04:11:06;6.67;;;1.67;;
82513;SDS011;72858;52.130;5.584;2024-01-15T04:13:34;8.00;;;1.58;;
82513;SDS011;72858;52.130;5.584;2024-01-15T04:15:59;5.93;;;1.38;;
82513;SDS011;72858;52.130;5.584;2024-01-15T04:18:25;9.13;;;2.13;;
82513;SDS011;72858;52.130;5.584;2024-01-15T04:20:50;5.25;;;1.75;;
82513;SDS011;72858;52.130;5.584;2024-01-15T04:23:15;5.47;;;2.33;;
82513;SDS011;72858;52.130;5.584;2024-01-15T04:25:41;12.30;;;1.90;;
82513;SDS011;72858;52.130;5.584;2024-01-15T04:28:07;10.13;;;2.10;;
82513;SDS011;72858;52.130;5.584;2024-01-15T04:30:33;6.05;;;2.55;;
82513;SDS011;72858;52.130;5.584;2024-01-15T04:32:58;7.50;;;2.20;;
82513;SDS011;72858;52.130;5.584;2024-01-15T04:35:23;12.13;;;2.30;;
82513;SDS011;72858;52.130;5.584;2024-01-15T04:37:48;7.32;;;2.10;;
82513;SDS011;72858;52.130;5.584;2024-01-15T04:40:13;10.03;;;2.10;;
82513;SDS011;72858;52.130;5.584;2024-01-15T04:42:39;7.55;;;2.00;;
82513;SDS011;72858;52.130;5.584;2024-01-15T04:45:05;11.23;;;2.60;;
82513;SDS011;72858;52.130;5.584;2024-01-15T04:47:30;8.48;;;2.10;;
82513;SDS011;72858;52.130;5.584;2024-01-15T04:49:55;9.87;;;2.17;;
82513;SDS011;72858;52.130;5.584;2024-01-15T04:52:20;8.63;;;2.35;;
82513;SDS011;72858;52.130;5.584;2024-01-15T04:54:45;14.97;;;2.00;;
82513;SDS011;72858;52.130;5.584;2024-01-15T04:57:11;5.90;;;1.80;;
82513;SDS011;72858;52.130;5.584;2024-01-15T04:59:36;14.80;;;2.20;;
82513;SDS011;72858;52.130;5.584;2024-01-15T05:02:01;18.10;;;2.10;;
82513;SDS011;72858;52.130;5.584;2024-01-15T05:04:26;15.52;;;2.13;;
82513;SDS011;72858;52.130;5.584;2024-01-15T05:06:51;4.80;;;1.48;;
82513;SDS011;72858;52.130;5.584;2024-01-15T05:09:17;7.43;;;1.83;;
82513;SDS011;72858;52.130;5.584;2024-01-15T05:11:43;11.27;;;2.42;;
82513;SDS011;72858;52.130;5.584;2024-01-15T05:14:08;11.38;;;2.08;;
82513;SDS011;72858;52.130;5.584;2024-01-15T05:16:33;8.90;;;1.90;;
82513;SDS011;72858;52.130;5.584;2024-01-15T05:18:58;9.30;;;1.98;;
82513;SDS011;72858;52.130;5.584;2024-01-15T05:21:23;12.27;;;1.90;;
82513;SDS011;72858;52.130;5.584;2024-01-15T05:23:49;10.05;;;1.80;;
82513;SDS011;72858;52.130;5.584;2024-01-15T05:26:14;7.50;;;1.50;;
82513;SDS011;72858;52.130;5.584;2024-01-15T05:28:42;9.07;;;1.70;;
82513;SDS011;72858;52.130;5.584;2024-01-15T05:31:10;10.27;;;1.60;;
82513;SDS011;72858;52.130;5.584;2024-01-15T05:33:36;10.73;;;1.50;;
82513;SDS011;72858;52.130;5.584;2024-01-15T05:36:01;11.63;;;1.80;;
82513;SDS011;72858;52.130;5.584;2024-01-15T05:38:27;12.40;;;2.50;;
82513;SDS011;72858;52.130;5.584;2024-01-15T05:40:52;11.73;;;2.38;;
82513;SDS011;72858;52.130;5.584;2024-01-15T05:43:17;14.05;;;1.75;;
82513;SDS011;72858;52.130;5.584;2024-01-15T05:45:43;11.43;;;2.15;;
82513;SDS011;72858;52.130;5.584;2024-01-15T05:48:09;4.15;;;1.35;;
82513;SDS011;72858;52.130;5.584;2024-01-15T05:50:34;14.25;;;1.40;;
82513;SDS011;72858;52.130;5.584;2024-01-15T05:53:00;9.17;;;1.87;;
82513;SDS011;72858;52.130;5.584;2024-01-15T05:55:25;8.90;;;1.38;;
82513;SDS011;72858;52.130;5.584;2024-01-15T05:57:50;15.13;;;1.63;;
82513;SDS011;72858;52.130;5.584;2024-01-15T06:00:15;13.97;;;2.07;;
82513;SDS011;72858;52.130;5.584;2024-01-15T06:02:41;8.52;;;1.42;;
82513;SDS011;72858;52.130;5.584;2024-01-15T06:05:06;10.63;;;4.70;;
82513;SDS011;72858;52.130;5.584;2024-01-15T06:07:33;10.55;;;2.35;;
82513;SDS011;72858;52.130;5.584;2024-01-15T06:09:58;39.20;;;18.75;;
82513;SDS011;72858;52.130;5.584;2024-01-15T06:12:24;69.05;;;32.38;;
82513;SDS011;72858;52.130;5.584;2024-01-15T06:14:49;19.23;;;8.95;;
82513;SDS011;72858;52.130;5.584;2024-01-15T06:17:14;22.57;;;13.30;;
82513;SDS011;72858;52.130;5.584;2024-01-15T06:19:39;8.88;;;2.40;;
82513;SDS011;72858;52.130;5.584;2024-01-15T06:22:04;14.57;;;2.10;;
82513;SDS011;72858;52.130;5.584;2024-01-15T06:24:30;5.73;;;2.23;;
82513;SDS011;72858;52.130;5.584;2024-01-15T06:26:55;8.90;;;2.20;;
82513;SDS011;72858;52.130;5.584;2024-01-15T06:29:20;8.02;;;1.83;;
82513;SDS011;72858;52.130;5.584;2024-01-15T06:31:45;9.68;;;3.40;;
82513;SDS011;72858;52.130;5.584;2024-01-15T06:34:11;11.32;;;3.13;;
82513;SDS011;72858;52.130;5.584;2024-01-15T06:36:36;10.37;;;3.13;;
82513;SDS011;72858;52.130;5.584;2024-01-15T06:39:01;9.68;;;2.90;;
82513;SDS011;72858;52.130;5.584;2024-01-15T06:41:27;8.13;;;3.08;;
82513;SDS011;72858;52.130;5.584;2024-01-15T06:43:52;11.20;;;3.80;;
82513;SDS011;72858;52.130;5.584;2024-01-15T06:46:21;10.50;;;4.32;;
82513;SDS011;72858;52.130;5.584;2024-01-15T06:48:46;16.83;;;3.70;;
82513;SDS011;72858;52.130;5.584;2024-01-15T06:51:12;9.85;;;4.07;;
82513;SDS011;72858;52.130;5.584;2024-01-15T06:53:37;8.15;;;3.80;;
82513;SDS011;72858;52.130;5.584;2024-01-15T06:56:02;10.38;;;4.38;;
82513;SDS011;72858;52.130;5.584;2024-01-15T06:58:28;12.40;;;4.10;;
82513;SDS011;72858;52.130;5.584;2024-01-15T07:00:53;14.73;;;4.77;;
82513;SDS011;72858;52.130;5.584;2024-01-15T07:03:18;15.83;;;5.20;;
82513;SDS011;72858;52.130;5.584;2024-01-15T07:05:43;14.00;;;5.07;;
82513;SDS011;72858;52.130;5.584;2024-01-15T07:08:08;13.75;;;5.72;;
82513;SDS011;72858;52.130;5.584;2024-01-15T07:10:34;11.20;;;6.13;;
82513;SDS011;72858;52.130;5.584;2024-01-15T07:12:59;10.87;;;7.63;;
82513;SDS011;72858;52.130;5.584;2024-01-15T07:15:24;12.18;;;7.95;;
82513;SDS011;72858;52.130;5.584;2024-01-15T07:17:49;15.57;;;7.87;;
82513;SDS011;72858;52.130;5.584;2024-01-15T07:20:15;13.60;;;7.90;;
82513;SDS011;72858;52.130;5.584;2024-01-15T07:22:40;14.63;;;7.80;;
82513;SDS011;72858;52.130;5.584;2024-01-15T07:25:06;17.80;;;9.00;;
82513;SDS011;72858;52.130;5.584;2024-01-15T07:27:31;17.55;;;9.63;;
82513;SDS011;72858;52.130;5.584;2024-01-15T07:29:57;14.82;;;9.88;;
82513;SDS011;72858;52.130;5.584;2024-01-15T07:32:22;13.43;;;10.57;;
82513;SDS011;72858;52.130;5.584;2024-01-15T07:34:47;14.93;;;10.33;;
82513;SDS011;72858;52.130;5.584;2024-01-15T07:37:12;13.93;;;9.30;;
82513;SDS011;72858;52.130;5.584;2024-01-15T07:39:37;8.63;;;6.17;;
82513;SDS011;72858;52.130;5.584;2024-01-15T07:42:03;14.55;;;6.45;;
82513;SDS011;72858;52.130;5.584;2024-01-15T07:44:28;10.02;;;5.82;;
82513;SDS011;72858;52.130;5.584;2024-01-15T07:46:53;7.20;;;5.37;;
82513;SDS011;72858;52.130;5.584;2024-01-15T07:49:18;8.80;;;5.50;;
82513;SDS011;72858;52.130;5.584;2024-01-15T07:51:44;8.57;;;5.30;;
82513;SDS011;72858;52.130;5.584;2024-01-15T07:54:09;8.95;;;6.30;;
82513;SDS011;72858;52.130;5.584;2024-01-15T07:56:52;8.80;;;6.03;;
82513;SDS011;72858;52.130;5.584;2024-01-15T07:59:17;8.93;;;7.60;;
82513;SDS011;72858;52.130;5.584;2024-01-15T08:01:43;6.30;;;5.30;;
82513;SDS011;72858;52.130;5.584;2024-01-15T08:04:08;8.50;;;5.03;;
82513;SDS011;72858;52.130;5.584;2024-01-15T08:06:34;9.80;;;5.53;;
82513;SDS011;72858;52.130;5.584;2024-01-15T08:08:59;9.77;;;5.90;;
82513;SDS011;72858;52.130;5.584;2024-01-15T08:11:24;10.50;;;5.80;;
82513;SDS011;72858;52.130;5.584;2024-01-15T08:13:49;10.40;;;5.70;;
82513;SDS011;72858;52.130;5.584;2024-01-15T08:16:15;10.63;;;6.67;;
82513;SDS011;72858;52.130;5.584;2024-01-15T08:18:41;14.88;;;6.75;;
82513;SDS011;72858;52.130;5.584;2024-01-15T08:21:06;10.88;;;7.32;;
82513;SDS011;72858;52.130;5.584;2024-01-15T08:23:32;12.65;;;5.85;;
82513;SDS011;72858;52.130;5.584;2024-01-15T08:25:59;10.00;;;4.85;;
82513;SDS011;72858;52.130;5.584;2024-01-15T08:28:24;10.57;;;4.85;;
82513;SDS011;72858;52.130;5.584;2024-01-15T08:30:49;9.80;;;6.63;;
82513;SDS011;72858;52.130;5.584;2024-01-15T08:33:14;11.23;;;6.97;;
82513;SDS011;72858;52.130;5.584;2024-01-15T08:35:40;17.83;;;9.32;;
82513;SDS011;72858;52.130;5.584;2024-01-15T08:38:05;12.50;;;8.02;;
82513;SDS011;72858;52.130;5.584;2024-01-15T08:40:30;13.55;;;7.38;;
82513;SDS011;72858;52.130;5.584;2024-01-15T08:42:56;17.23;;;10.27;;
82513;SDS011;72858;52.130;5.584;2024-01-15T08:45:21;15.13;;;8.57;;
82513;SDS011;72858;52.130;5.584;2024-01-15T08:47:46;24.98;;;16.88;;
82513;SDS011;72858;52.130;5.584;2024-01-15T08:50:12;13.27;;;8.07;;
82513;SDS011;72858;52.130;5.584;2024-01-15T08:52:37;16.17;;;9.85;;
82513;SDS011;72858;52.130;5.584;2024-01-15T08:55:02;14.25;;;8.02;;
82513;SDS011;72858;52.130;5.584;2024-01-15T08:57:29;21.85;;;10.07;;
82513;SDS011;72858;52.130;5.584;2024-01-15T08:59:54;20.73;;;8.90;;
82513;SDS011;72858;52.130;5.584;2024-01-15T09:02:19;17.05;;;9.40;;
82513;SDS011;72858;52.130;5.584;2024-01-15T09:04:45;14.43;;;7.65;;
82513;SDS011;72858;52.130;5.584;2024-01-15T09:07:10;15.97;;;7.53;;
82513;SDS011;72858;52.130;5.584;2024-01-15T09:09:36;13.05;;;6.32;;
82513;SDS011;72858;52.130;5.584;2024-01-15T09:12:01;13.98;;;7.07;;
82513;SDS011;72858;52.130;5.584;2024-01-15T09:14:26;18.30;;;7.40;;
82513;SDS011;72858;52.130;5.584;2024-01-15T09:16:54;16.48;;;6.88;;
82513;SDS011;72858;52.130;5.584;2024-01-15T09:19:19;14.67;;;6.70;;
82513;SDS011;72858;52.130;5.584;2024-01-15T09:21:44;14.80;;;5.57;;
82513;SDS011;72858;52.130;5.584;2024-01-15T09:24:09;13.80;;;6.43;;
82513;SDS011;72858;52.130;5.584;2024-01-15T09:26:34;10.80;;;5.83;;
82513;SDS011;72858;52.130;5.584;2024-01-15T09:28:59;11.53;;;5.10;;
82513;SDS011;72858;52.130;5.584;2024-01-15T09:31:26;13.63;;;4.55;;
82513;SDS011;72858;52.130;5.584;2024-01-15T09:33:52;10.95;;;4.85;;
82513;SDS011;72858;52.130;5.584;2024-01-15T09:36:21;12.60;;;4.72;;
82513;SDS011;72858;52.130;5.584;2024-01-15T09:38:46;7.87;;;3.27;;
82513;SDS011;72858;52.130;5.584;2024-01-15T09:41:11;13.73;;;3.83;;
82513;SDS011;72858;52.130;5.584;2024-01-15T09:43:36;13.80;;;3.70;;
82513;SDS011;72858;52.130;5.584;2024-01-15T09:46:02;8.77;;;2.88;;
82513;SDS011;72858;52.130;5.584;2024-01-15T09:48:28;10.32;;;3.30;;
82513;SDS011;72858;52.130;5.584;2024-01-15T09:50:54;9.90;;;2.72;;
82513;SDS011;72858;52.130;5.584;2024-01-15T09:53:19;11.85;;;2.72;;
82513;SDS011;72858;52.130;5.584;2024-01-15T09:55:45;8.07;;;3.10;;
82513;SDS011;72858;52.130;5.584;2024-01-15T09:58:11;6.85;;;2.72;;
82513;SDS011;72858;52.130;5.584;2024-01-15T10:00:37;7.72;;;3.35;;
82513;SDS011;72858;52.130;5.584;2024-01-15T10:03:06;9.23;;;3.38;;
82513;SDS011;72858;52.130;5.584;2024-01-15T10:05:32;8.70;;;3.60;;
82513;SDS011;72858;52.130;5.584;2024-01-15T10:07:57;8.45;;;2.78;;
82513;SDS011;72858;52.130;5.584;2024-01-15T10:10:23;6.80;;;3.28;;
82513;SDS011;72858;52.130;5.584;2024-01-15T10:12:49;5.85;;;2.67;;
82513;SDS011;72858;52.130;5.584;2024-01-15T10:15:14;9.38;;;2.60;;
82513;SDS011;72858;52.130;5.584;2024-01-15T10:17:40;12.05;;;3.35;;
82513;SDS011;72858;52.130;5.584;2024-01-15T10:20:11;5.43;;;2.63;;
82513;SDS011;72858;52.130;5.584;2024-01-15T10:22:40;7.35;;;2.83;;
82513;SDS011;72858;52.130;5.584;2024-01-15T10:25:05;9.55;;;2.90;;
82513;SDS011;72858;52.130;5.584;2024-01-15T10:27:31;15.75;;;3.00;;
82513;SDS011;72858;52.130;5.584;2024-01-15T10:29:59;7.05;;;3.35;;
82513;SDS011;72858;52.130;5.584;2024-01-15T10:32:25;11.07;;;3.13;;
82513;SDS011;72858;52.130;5.584;2024-01-15T10:34:51;15.65;;;3.65;;
82513;SDS011;72858;52.130;5.584;2024-01-15T10:37:17;10.10;;;3.17;;
82513;SDS011;72858;52.130;5.584;2024-01-15T10:39:42;12.33;;;3.40;;
82513;SDS011;72858;52.130;5.584;2024-01-15T10:42:07;10.50;;;3.15;;
82513;SDS011;72858;52.130;5.584;2024-01-15T10:44:33;16.48;;;3.78;;
82513;SDS011;72858;52.130;5.584;2024-01-15T10:46:59;10.50;;;2.75;;
82513;SDS011;72858;52.130;5.584;2024-01-15T10:49:24;10.10;;;3.00;;
82513;SDS011;72858;52.130;5.584;2024-01-15T10:51:52;7.70;;;2.83;;
82513;SDS011;72858;52.130;5.584;2024-01-15T10:54:17;8.65;;;2.67;;
82513;SDS011;72858;52.130;5.584;2024-01-15T10:56:43;11.15;;;2.80;;
82513;SDS011;72858;52.130;5.584;2024-01-15T10:59:10;12.98;;;3.53;;
82513;SDS011;72858;52.130;5.584;2024-01-15T11:01:36;10.15;;;2.72;;
82513;SDS011;72858;52.130;5.584;2024-01-15T11:04:01;7.13;;;2.95;;
82513;SDS011;72858;52.130;5.584;2024-01-15T11:06:27;8.68;;;2.40;;
82513;SDS011;72858;52.130;5.584;2024-01-15T11:08:54;11.15;;;2.63;;
82513;SDS011;72858;52.130;5.584;2024-01-15T11:11:20;12.93;;;3.08;;
82513;SDS011;72858;52.130;5.584;2024-01-15T11:13:49;13.80;;;2.60;;
82513;SDS011;72858;52.130;5.584;2024-01-15T11:16:16;9.60;;;2.47;;
82513;SDS011;72858;52.130;5.584;2024-01-15T11:29:01;11.07;;;2.00;;
82513;SDS011;72858;52.130;5.584;2024-01-15T11:34:08;9.90;;;2.10;;
82513;SDS011;72858;52.130;5.584;2024-01-15T11:37:07;16.67;;;5.25;;
82513;SDS011;72858;52.130;5.584;2024-01-15T11:41:59;8.65;;;3.10;;
82513;SDS011;72858;52.130;5.584;2024-01-15T11:44:26;11.23;;;3.33;;
82513;SDS011;72858;52.130;5.584;2024-01-15T11:47:00;10.10;;;2.15;;
82513;SDS011;72858;52.130;5.584;2024-01-15T11:52:11;14.95;;;4.07;;
82513;SDS011;72858;52.130;5.584;2024-01-15T11:54:39;5.22;;;1.95;;
82513;SDS011;72858;52.130;5.584;2024-01-15T11:57:12;4.93;;;1.30;;
82513;SDS011;72858;52.130;5.584;2024-01-15T11:59:39;9.00;;;1.55;;
82513;SDS011;72858;52.130;5.584;2024-01-15T12:02:04;7.65;;;2.67;;
82513;SDS011;72858;52.130;5.584;2024-01-15T12:04:29;4.10;;;1.33;;
82513;SDS011;72858;52.130;5.584;2024-01-15T12:06:54;7.35;;;1.42;;
82513;SDS011;72858;52.130;5.584;2024-01-15T12:09:19;4.80;;;1.10;;
82513;SDS011;72858;52.130;5.584;2024-01-15T12:11:47;6.10;;;1.02;;
82513;SDS011;72858;52.130;5.584;2024-01-15T12:14:15;6.55;;;1.50;;
82513;SDS011;72858;52.130;5.584;2024-01-15T12:16:41;6.70;;;1.50;;
82513;SDS011;72858;52.130;5.584;2024-01-15T12:19:06;5.10;;;1.55;;
82513;SDS011;72858;52.130;5.584;2024-01-15T12:21:31;4.47;;;1.50;;
82513;SDS011;72858;52.130;5.584;2024-01-15T12:23:56;5.97;;;1.40;;
82513;SDS011;72858;52.130;5.584;2024-01-15T12:26:21;10.03;;;3.77;;
82513;SDS011;72858;52.130;5.584;2024-01-15T12:28:49;4.72;;;1.55;;
82513;SDS011;72858;52.130;5.584;2024-01-15T12:31:14;5.65;;;2.30;;
82513;SDS011;72858;52.130;5.584;2024-01-15T12:33:39;4.55;;;2.78;;
82513;SDS011;72858;52.130;5.584;2024-01-15T12:36:05;8.18;;;2.25;;
82513;SDS011;72858;52.130;5.584;2024-01-15T12:38:30;7.28;;;1.40;;
82513;SDS011;72858;52.130;5.584;2024-01-15T12:40:55;7.03;;;1.37;;
82513;SDS011;72858;52.130;5.584;2024-01-15T12:43:20;9.18;;;3.05;;
82513;SDS011;72858;52.130;5.584;2024-01-15T12:45:46;9.20;;;1.92;;
82513;SDS011;72858;52.130;5.584;2024-01-15T12:48:11;3.38;;;1.65;;
82513;SDS011;72858;52.130;5.584;2024-01-15T12:50:38;6.85;;;1.35;;
82513;SDS011;72858;52.130;5.584;2024-01-15T12:53:03;5.07;;;1.43;;
82513;SDS011;72858;52.130;5.584;2024-01-15T12:55:28;9.93;;;4.00;;
82513;SDS011;72858;52.130;5.584;2024-01-15T12:57:54;13.50;;;2.90;;
82513;SDS011;72858;52.130;5.584;2024-01-15T13:00:20;7.95;;;2.60;;
82513;SDS011;72858;52.130;5.584;2024-01-15T13:02:45;6.85;;;2.90;;
82513;SDS011;72858;52.130;5.584;2024-01-15T13:05:10;7.85;;;3.17;;
82513;SDS011;72858;52.130;5.584;2024-01-15T13:07:36;10.55;;;3.00;;
82513;SDS011;72858;52.130;5.584;2024-01-15T13:10:01;11.05;;;3.38;;
82513;SDS011;72858;52.130;5.584;2024-01-15T13:12:26;6.78;;;3.25;;
82513;SDS011;72858;52.130;5.584;2024-01-15T13:14:51;8.48;;;2.85;;
82513;SDS011;72858;52.130;5.584;2024-01-15T13:17:17;8.17;;;2.73;;
82513;SDS011;72858;52.130;5.584;2024-01-15T13:19:42;9.10;;;2.10;;
82513;SDS011;72858;52.130;5.584;2024-01-15T13:22:07;5.45;;;1.30;;
82513;SDS011;72858;52.130;5.584;2024-01-15T13:24:34;4.32;;;2.17;;
82513;SDS011;72858;52.130;5.584;2024-01-15T13:26:59;9.48;;;3.13;;
82513;SDS011;72858;52.130;5.584;2024-01-15T13:29:25;9.73;;;2.30;;
82513;SDS011;72858;52.130;5.584;2024-01-15T13:31:50;9.30;;;2.50;;
82513;SDS011;72858;52.130;5.584;2024-01-15T13:34:15;9.05;;;2.00;;
82513;SDS011;72858;52.130;5.584;2024-01-15T13:36:40;9.57;;;2.70;;
82513;SDS011;72858;52.130;5.584;2024-01-15T13:39:06;7.75;;;2.60;;
82513;SDS011;72858;52.130;5.584;2024-01-15T13:41:34;8.95;;;1.77;;
82513;SDS011;72858;52.130;5.584;2024-01-15T13:43:59;7.40;;;2.38;;
82513;SDS011;72858;52.130;5.584;2024-01-15T13:46:25;5.78;;;2.10;;
82513;SDS011;72858;52.130;5.584;2024-01-15T13:48:54;9.75;;;2.60;;
82513;SDS011;72858;52.130;5.584;2024-01-15T13:51:21;9.90;;;2.07;;
82513;SDS011;72858;52.130;5.584;2024-01-15T13:53:47;6.03;;;1.92;;
82513;SDS011;72858;52.130;5.584;2024-01-15T13:56:12;8.80;;;1.90;;
82513;SDS011;72858;52.130;5.584;2024-01-15T13:58:37;6.00;;;1.63;;
82513;SDS011;72858;52.130;5.584;2024-01-15T14:01:02;8.63;;;1.92;;
82513;SDS011;72858;52.130;5.584;2024-01-15T14:03:29;11.60;;;2.67;;
82513;SDS011;72858;52.130;5.584;2024-01-15T14:05:54;10.95;;;3.35;;
82513;SDS011;72858;52.130;5.584;2024-01-15T14:08:20;15.02;;;3.25;;
82513;SDS011;72858;52.130;5.584;2024-01-15T14:10:45;10.67;;;2.50;;
82513;SDS011;72858;52.130;5.584;2024-01-15T14:13:10;7.07;;;2.97;;
82513;SDS011;72858;52.130;5.584;2024-01-15T14:15:35;8.50;;;2.80;;
82513;SDS011;72858;52.130;5.584;2024-01-15T14:18:01;9.50;;;2.60;;
82513;SDS011;72858;52.130;5.584;2024-01-15T14:20:27;13.38;;;3.72;;
82513;SDS011;72858;52.130;5.584;2024-01-15T14:22:52;10.77;;;3.70;;
82513;SDS011;72858;52.130;5.584;2024-01-15T14:25:17;13.82;;;3.47;;
82513;SDS011;72858;52.130;5.584;2024-01-15T14:27:43;16.85;;;4.50;;
82513;SDS011;72858;52.130;5.584;2024-01-15T14:30:08;11.97;;;3.43;;
82513;SDS011;72858;52.130;5.584;2024-01-15T14:32:34;11.20;;;3.63;;
82513;SDS011;72858;52.130;5.584;2024-01-15T14:34:59;6.40;;;3.00;;
82513;SDS011;72858;52.130;5.584;2024-01-15T14:37:25;10.32;;;4.60;;
82513;SDS011;72858;52.130;5.584;2024-01-15T14:39:50;12.10;;;6.15;;
82513;SDS011;72858;52.130;5.584;2024-01-15T14:42:17;6.85;;;2.47;;
82513;SDS011;72858;52.130;5.584;2024-01-15T14:44:42;9.80;;;2.45;;
82513;SDS011;72858;52.130;5.584;2024-01-15T14:47:07;12.43;;;2.67;;
82513;SDS011;72858;52.130;5.584;2024-01-15T14:49:33;13.68;;;2.60;;